Airfield :
LOGIN :

Register | Disclaimer

   EN    FR    IT 

 










Legend :    VFR   Marginal VFR   IFR   Intensive IFR   Very Intensive IFR
Visi :
Ceiling :
>= 8 km
>= 3000ft
5 to 8 km
1000 to 3000 ft
1500m to 5 km
500 to 1000 ft
800 to 1500m
200 to 500 ft
< 800m
< 200 ft
Symbols :   Thunderstorms  Fog  Heavy snow  Heavy precipitations  Wind > 20 kt
SIGMETs :     Misc.  Thunderstorms  Icing  Turbulence  Mountain Waves  Volcanic Ashes






- Airport Elevation : 49 ft
- IATA code : GLZ


EHGR - Gilze-Rijen Airbase

CURRENT METAR :
  • 101107Z AUTO 20014KT 150V240 9999 OVC200 06/01 Q1023 BLU 20015KT CAVOK

EXPIRED METARs :
  • 101055Z AUTO 20014KT 170V250 9999 BKN220 05/01 Q1023 BLU 20010KT CAVOK
  • 101025Z AUTO 20013KT 140V240 9999 BKN210 05/01 Q1024 BLU 20010KT CAVOK
  • 101000Z AUTO 20010KT 160V230 9999 NCD 04/01 Q1024 BLU 20010KT CAVOK
  • 100925Z AUTO 19008KT 150V230 9999 NCD 03/01 Q1024 BLU 20007KT CAVOK
  • 100855Z AUTO 19008KT 150V230 9999 SCT210 02/01 Q1024 BLU 20007KT CAVOK
  • 100825Z AUTO 20006KT 160V230 9999 BKN210 02/01 Q1025 BLU 20007KT CAVOK

TAF TAF EHGR
Valid from the 10 at 10:00 until the 10 at 22:00 UTC


100931Z 1010/1022 19010KT CAVOK
BECMG 1010/1012 19012G22KT
BECMG 1015/1018 19017G30KT
PROB30
TEMPO 1016/1022 20018G34KT



MET'MAP, your aeronautical weather chart ! - Copyright ORBIFLY December 2007 - Disclaimer

ORBIFLY MET'MAP TEAM :

Programming & Development : Alexandra Zaïnal
Concept & original design : Baudouin d'Aumeries
Assistance for programming : Marc-Olivier Méhu
Technical & hardware support : Manuel Goepfert

Contact : metmap@orbifly.com




SOURCES & CREDITS :

   NOAA